createdAt,value
2022-08-18T00:01:14.773Z,20.91
2022-08-18T00:03:56.860Z,20.91
2022-08-18T00:06:32.389Z,20.87
2022-08-18T00:09:01.917Z,20.84
2022-08-18T00:11:41.588Z,20.86
2022-08-18T00:14:21.235Z,20.89
2022-08-18T00:16:52.175Z,20.90
2022-08-18T00:19:20.087Z,20.86
2022-08-18T00:22:14.547Z,20.84
2022-08-18T00:24:48.521Z,20.84
2022-08-18T00:27:21.663Z,20.90
2022-08-18T00:29:51.620Z,20.90
2022-08-18T00:32:23.260Z,20.81
2022-08-18T00:34:51.871Z,20.81
2022-08-18T00:37:21.349Z,20.79
2022-08-18T00:39:51.829Z,20.78
2022-08-18T00:42:27.628Z,20.79
2022-08-18T00:44:59.734Z,20.76
2022-08-18T00:47:41.091Z,20.76
2022-08-18T00:50:15.956Z,20.75
2022-08-18T00:52:50.964Z,20.81
2022-08-18T00:55:20.357Z,20.75
2022-08-18T00:57:51.603Z,20.74
2022-08-18T01:00:19.636Z,20.73
2022-08-18T01:02:52.582Z,20.78
2022-08-18T01:05:25.659Z,20.73
2022-08-18T01:07:55.038Z,20.73
2022-08-18T01:10:25.135Z,20.70
2022-08-18T01:12:55.550Z,20.68
2022-08-18T01:15:28.391Z,20.68
2022-08-18T01:18:18.028Z,20.63
2022-08-18T01:21:11.378Z,20.56
2022-08-18T01:23:41.367Z,20.47
2022-08-18T01:26:09.348Z,20.53
2022-08-18T01:28:41.312Z,20.45
2022-08-18T01:31:11.201Z,20.38
2022-08-18T01:33:42.272Z,20.40
2022-08-18T01:36:14.421Z,20.42
2022-08-18T01:38:44.386Z,20.43
2022-08-18T01:41:28.893Z,20.46
2022-08-18T01:43:59.263Z,20.43
2022-08-18T01:46:27.898Z,20.41
2022-08-18T01:49:01.401Z,20.43
2022-08-18T01:51:40.084Z,20.45
2022-08-18T01:54:12.965Z,20.40
2022-08-18T01:56:42.207Z,20.40
2022-08-18T01:59:14.389Z,20.36
2022-08-18T02:01:50.404Z,20.33
2022-08-18T02:04:40.583Z,20.34
2022-08-18T02:07:12.667Z,20.32
2022-08-18T02:09:43.920Z,20.34
2022-08-18T02:12:12.120Z,20.36
2022-08-18T02:14:40.155Z,20.29
2022-08-18T02:17:11.088Z,20.36
2022-08-18T02:19:41.147Z,20.34
2022-08-18T02:22:11.143Z,20.35
2022-08-18T02:24:40.977Z,20.38
2022-08-18T02:27:10.969Z,20.34
2022-08-18T02:29:39.379Z,20.38
2022-08-18T02:32:08.715Z,20.41
2022-08-18T02:34:36.777Z,20.39
2022-08-18T02:37:05.027Z,20.35
2022-08-18T02:39:35.212Z,20.40
2022-08-18T02:42:05.282Z,20.34
2022-08-18T02:44:33.543Z,20.31
2022-08-18T02:47:01.712Z,20.31
2022-08-18T02:49:29.589Z,20.29
2022-08-18T02:51:57.569Z,20.27
2022-08-18T02:54:27.136Z,20.28
2022-08-18T02:56:57.084Z,20.19
2022-08-18T02:59:28.485Z,20.14
2022-08-18T03:01:59.941Z,20.09
2022-08-18T03:04:32.567Z,20.10
2022-08-18T03:07:06.748Z,20.11
2022-08-18T03:09:36.067Z,20.09
2022-08-18T03:12:07.149Z,20.08
2022-08-18T03:14:37.211Z,20.01
2022-08-18T03:17:06.306Z,19.94
2022-08-18T03:19:34.494Z,19.87
2022-08-18T03:22:03.710Z,19.85
2022-08-18T03:24:33.094Z,19.90
2022-08-18T03:27:04.401Z,19.80
2022-08-18T03:29:33.086Z,19.84
2022-08-18T03:32:03.434Z,19.78
2022-08-18T03:34:32.247Z,19.87
2022-08-18T03:37:00.984Z,19.81
2022-08-18T03:39:29.740Z,19.82
2022-08-18T03:42:01.718Z,19.80
2022-08-18T03:44:32.309Z,19.80
2022-08-18T03:47:02.742Z,19.78
2022-08-18T03:49:33.646Z,19.76
2022-08-18T03:52:02.523Z,19.70
2022-08-18T03:54:32.046Z,19.69
2022-08-18T03:57:00.553Z,19.66
2022-08-18T03:59:31.776Z,19.66
2022-08-18T04:02:00.379Z,19.65
2022-08-18T04:04:29.892Z,19.68
2022-08-18T04:07:04.550Z,19.65
2022-08-18T04:09:33.976Z,19.65
2022-08-18T04:12:15.286Z,19.64
2022-08-18T04:14:47.905Z,19.57
2022-08-18T04:17:16.235Z,19.56
2022-08-18T04:19:44.229Z,19.59
2022-08-18T04:22:18.181Z,19.56
2022-08-18T04:24:47.176Z,19.62
2022-08-18T04:27:17.892Z,19.58
2022-08-18T04:29:48.044Z,19.64
2022-08-18T04:32:16.073Z,19.62
2022-08-18T04:34:44.418Z,19.63
2022-08-18T04:37:17.225Z,19.69
2022-08-18T04:39:46.011Z,19.70
2022-08-18T04:42:14.102Z,19.79
2022-08-18T04:44:42.567Z,19.81
2022-08-18T04:47:11.138Z,19.77
2022-08-18T04:49:39.066Z,19.77
2022-08-18T04:52:40.141Z,19.70
2022-08-18T04:55:11.523Z,19.70
2022-08-18T04:57:40.222Z,19.71
2022-08-18T05:00:11.897Z,19.85
2022-08-18T05:02:39.800Z,19.82
2022-08-18T05:05:11.078Z,19.93
2022-08-18T05:07:45.729Z,20.00
2022-08-18T05:10:17.469Z,20.05
2022-08-18T05:12:48.344Z,20.15
2022-08-18T05:15:17.656Z,20.15
2022-08-18T05:17:47.650Z,20.18
2022-08-18T05:20:18.750Z,20.23
2022-08-18T05:22:47.807Z,20.25
2022-08-18T05:25:17.406Z,20.19
2022-08-18T05:27:45.475Z,20.17
2022-08-18T05:30:14.494Z,20.11
2022-08-18T05:32:48.671Z,20.14
2022-08-18T05:35:24.388Z,20.16
2022-08-18T05:38:16.069Z,20.19
2022-08-18T05:40:47.656Z,20.28
2022-08-18T05:43:17.507Z,20.32
2022-08-18T05:45:45.429Z,20.41
2022-08-18T05:48:14.932Z,20.54
2022-08-18T05:50:43.337Z,20.60
2022-08-18T05:53:15.171Z,20.64
2022-08-18T05:56:12.197Z,20.72
2022-08-18T05:58:44.095Z,20.80
2022-08-18T06:01:17.046Z,20.90
2022-08-18T06:03:50.893Z,20.98
2022-08-18T06:06:21.404Z,21.10
2022-08-18T06:08:55.058Z,21.07
2022-08-18T06:11:25.742Z,21.01
2022-08-18T06:13:59.122Z,21.07
2022-08-18T06:16:40.153Z,21.18
2022-08-18T06:19:23.857Z,21.13
2022-08-18T06:22:01.572Z,21.07
2022-08-18T06:24:37.101Z,21.08
2022-08-18T06:27:15.141Z,21.08
2022-08-18T06:29:58.814Z,21.10
2022-08-18T06:32:41.644Z,21.09
2022-08-18T06:35:19.060Z,21.15
2022-08-18T06:38:15.661Z,21.17
2022-08-18T06:40:43.521Z,21.12
2022-08-18T06:43:17.081Z,21.29
2022-08-18T06:45:51.922Z,21.14
2022-08-18T06:48:27.099Z,21.09
2022-08-18T06:51:00.358Z,21.33
2022-08-18T06:53:53.534Z,21.37
2022-08-18T06:56:26.213Z,21.38
2022-08-18T06:59:14.437Z,21.12
2022-08-18T07:01:43.077Z,21.23
2022-08-18T07:04:14.070Z,21.22
2022-08-18T07:06:41.945Z,21.17
2022-08-18T07:09:23.090Z,21.05
2022-08-18T07:12:04.120Z,21.24
2022-08-18T07:14:42.918Z,21.18
2022-08-18T07:17:13.307Z,21.49
2022-08-18T07:19:41.727Z,21.60
2022-08-18T07:22:18.015Z,21.43
2022-08-18T07:24:48.526Z,21.13
2022-08-18T07:27:18.951Z,21.25
2022-08-18T07:30:03.304Z,21.04
2022-08-18T07:32:36.242Z,21.07
2022-08-18T07:35:08.429Z,21.08
2022-08-18T07:37:44.231Z,21.23
2022-08-18T07:40:23.332Z,21.09
2022-08-18T07:43:01.428Z,21.21
2022-08-18T07:45:37.065Z,21.19
2022-08-18T07:48:34.667Z,21.22
2022-08-18T07:51:08.763Z,21.27
2022-08-18T07:53:54.812Z,21.26
2022-08-18T07:56:37.001Z,21.14
2022-08-18T07:59:13.458Z,21.26
2022-08-18T08:01:50.034Z,21.18
2022-08-18T08:04:33.462Z,21.18
2022-08-18T08:07:25.808Z,21.10
2022-08-18T08:10:02.791Z,21.13
2022-08-18T08:12:38.017Z,21.31
2022-08-18T08:15:18.328Z,21.58
2022-08-18T08:18:06.047Z,21.72
2022-08-18T08:20:40.981Z,21.82
2022-08-18T08:23:19.492Z,22.23
2022-08-18T08:26:01.628Z,22.38
2022-08-18T08:28:42.265Z,22.77
2022-08-18T08:34:11.973Z,22.98
2022-08-18T08:36:41.996Z,22.94
2022-08-18T08:39:15.362Z,23.05
2022-08-18T08:41:49.927Z,23.23
2022-08-18T08:44:24.830Z,23.08
2022-08-18T08:47:00.506Z,23.11
2022-08-18T08:49:38.983Z,23.19
2022-08-18T08:52:18.744Z,23.39
2022-08-18T08:54:53.560Z,23.64
2022-08-18T08:57:24.279Z,23.78
2022-08-18T08:59:53.451Z,23.65
2022-08-18T09:02:49.000Z,23.56
2022-08-18T09:05:23.132Z,23.37
2022-08-18T09:08:27.946Z,23.26
2022-08-18T09:11:18.938Z,23.46
2022-08-18T09:14:17.641Z,24.02
2022-08-18T09:16:56.891Z,23.72
2022-08-18T09:19:41.380Z,23.63
2022-08-18T09:22:19.620Z,23.55
2022-08-18T09:24:51.226Z,23.43
2022-08-18T09:27:48.498Z,23.53
2022-08-18T09:30:42.232Z,23.55
2022-08-18T09:33:24.800Z,23.33
2022-08-18T09:36:20.347Z,23.51
2022-08-18T09:39:11.656Z,23.39
2022-08-18T09:41:50.189Z,23.58
2022-08-18T09:44:51.225Z,23.83
2022-08-18T09:47:51.672Z,23.69
2022-08-18T09:50:55.642Z,23.81
2022-08-18T09:53:49.128Z,23.85
2022-08-18T09:56:57.422Z,23.74
2022-08-18T10:00:19.763Z,23.79
2022-08-18T10:03:33.770Z,23.87
2022-08-18T10:06:20.590Z,23.87
2022-08-18T10:09:14.719Z,23.73
2022-08-18T10:12:15.831Z,23.97
2022-08-18T10:18:34.021Z,23.99
2022-08-18T10:21:09.966Z,24.16
2022-08-18T10:24:02.843Z,24.00
2022-08-18T10:27:13.381Z,24.03
2022-08-18T10:30:05.012Z,24.15
2022-08-18T10:32:54.512Z,24.19
2022-08-18T10:35:59.141Z,24.21
2022-08-18T10:38:45.870Z,24.09
2022-08-18T10:41:25.164Z,24.27
2022-08-18T10:43:57.459Z,24.33
2022-08-18T10:46:32.887Z,24.46
2022-08-18T10:49:18.283Z,24.48
2022-08-18T10:52:10.647Z,24.43
2022-08-18T10:54:57.336Z,24.16
2022-08-18T10:57:33.928Z,24.41
2022-08-18T11:00:07.010Z,24.58
2022-08-18T11:03:42.514Z,24.75
2022-08-18T11:06:04.358Z,24.86
2022-08-18T11:08:45.115Z,25.01
2022-08-18T11:11:33.639Z,25.05
2022-08-18T11:14:16.937Z,25.09
2022-08-18T11:16:55.815Z,25.09
2022-08-18T11:19:25.917Z,25.22
2022-08-18T11:21:54.599Z,25.22
2022-08-18T11:24:25.562Z,25.24
2022-08-18T11:26:56.140Z,25.09
2022-08-18T11:29:28.682Z,25.18
2022-08-18T11:32:03.828Z,25.26
2022-08-18T11:34:41.339Z,25.01
2022-08-18T11:37:51.250Z,24.95
2022-08-18T11:43:29.847Z,25.17
2022-08-18T11:46:16.585Z,25.25
2022-08-18T11:48:53.113Z,25.27
2022-08-18T11:51:27.083Z,25.30
2022-08-18T11:53:59.755Z,25.25
2022-08-18T11:56:31.173Z,25.11
2022-08-18T11:59:01.734Z,25.34
2022-08-18T12:01:36.156Z,25.55
2022-08-18T12:04:21.918Z,25.58
2022-08-18T12:07:01.099Z,25.84
2022-08-18T12:12:33.289Z,26.01
2022-08-18T12:15:25.286Z,25.92
2022-08-18T12:17:58.007Z,25.99
2022-08-18T12:20:26.005Z,26.05
2022-08-18T12:22:58.166Z,26.07
2022-08-18T12:25:26.086Z,25.96
2022-08-18T12:27:54.389Z,26.11
2022-08-18T12:30:22.344Z,26.17
2022-08-18T12:35:41.871Z,26.83
2022-08-18T12:38:13.905Z,27.01
2022-08-18T12:40:42.908Z,27.03
2022-08-18T12:43:10.835Z,26.92
2022-08-18T12:45:39.249Z,26.75
2022-08-18T12:48:08.045Z,26.76
2022-08-18T12:50:50.277Z,26.61
2022-08-18T12:53:30.206Z,26.51
2022-08-18T12:56:08.559Z,26.24
2022-08-18T12:58:40.561Z,26.22
2022-08-18T13:01:08.667Z,26.31
2022-08-18T13:03:38.605Z,26.43
2022-08-18T13:06:11.492Z,26.39
2022-08-18T13:08:48.080Z,26.41
2022-08-18T13:11:21.687Z,26.59
2022-08-18T13:13:56.181Z,26.87
2022-08-18T13:16:30.546Z,26.87
2022-08-18T13:19:08.054Z,27.00
2022-08-18T13:21:41.074Z,26.93
2022-08-18T13:24:12.663Z,27.02
2022-08-18T13:26:45.861Z,27.20
2022-08-18T13:29:15.481Z,27.20
2022-08-18T13:31:55.378Z,27.38
2022-08-18T13:34:24.401Z,27.50
2022-08-18T13:36:52.400Z,27.75
2022-08-18T13:39:24.151Z,27.84
2022-08-18T13:41:54.831Z,27.59
2022-08-18T13:44:27.270Z,27.54
2022-08-18T13:46:56.105Z,27.44
2022-08-18T13:49:30.504Z,27.65
2022-08-18T13:52:00.345Z,27.75
2022-08-18T13:54:33.871Z,27.87
2022-08-18T13:57:03.695Z,27.93
2022-08-18T13:59:35.744Z,27.88
2022-08-18T14:02:08.617Z,28.18
2022-08-18T14:04:38.353Z,28.20
2022-08-18T14:07:10.516Z,28.19
2022-08-18T14:09:40.992Z,28.11
2022-08-18T14:12:22.404Z,27.73
2022-08-18T14:14:53.026Z,27.53
2022-08-18T14:17:22.522Z,27.48
2022-08-18T14:20:10.674Z,27.46
2022-08-18T14:23:08.187Z,27.27
2022-08-18T14:25:55.130Z,27.44
2022-08-18T14:28:24.956Z,27.60
2022-08-18T14:30:54.505Z,27.75
2022-08-18T14:33:34.345Z,27.91
2022-08-18T14:36:13.050Z,27.84
2022-08-18T14:38:41.523Z,27.85
2022-08-18T14:41:13.319Z,27.63
2022-08-18T14:43:51.616Z,27.64
2022-08-18T14:46:33.695Z,27.36
2022-08-18T14:49:03.977Z,27.23
2022-08-18T14:51:33.645Z,27.42
2022-08-18T14:54:02.127Z,27.36
2022-08-18T14:56:33.345Z,27.38
2022-08-18T14:59:07.755Z,27.38
2022-08-18T15:01:36.760Z,27.10
2022-08-18T15:04:19.307Z,27.27
2022-08-18T15:06:56.552Z,27.35
2022-08-18T15:09:27.285Z,26.98
2022-08-18T15:11:58.394Z,26.72
2022-08-18T15:14:32.936Z,26.35
2022-08-18T15:17:02.938Z,26.19
2022-08-18T15:19:59.254Z,25.93
2022-08-18T15:22:36.695Z,25.77
2022-08-18T15:25:24.084Z,25.74
2022-08-18T15:27:53.858Z,25.72
2022-08-18T15:30:22.966Z,25.64
2022-08-18T15:32:51.690Z,25.62
2022-08-18T15:35:20.425Z,25.73
2022-08-18T15:37:51.478Z,25.86
2022-08-18T15:40:35.489Z,25.62
2022-08-18T15:43:09.587Z,25.72
2022-08-18T15:45:43.415Z,25.76
2022-08-18T15:48:26.284Z,25.76
2022-08-18T15:50:54.424Z,25.79
2022-08-18T15:53:29.769Z,25.80
2022-08-18T15:55:58.461Z,25.75
2022-08-18T15:58:33.740Z,25.76
2022-08-18T16:01:02.770Z,25.80
2022-08-18T16:03:50.000Z,25.79
2022-08-18T16:06:27.746Z,25.92
2022-08-18T16:09:01.725Z,25.94
2022-08-18T16:11:30.026Z,25.97
2022-08-18T16:13:59.990Z,26.06
2022-08-18T16:16:35.511Z,26.05
2022-08-18T16:19:05.242Z,26.01
2022-08-18T16:21:33.358Z,26.08
2022-08-18T16:24:01.688Z,26.14
2022-08-18T16:26:30.192Z,26.12
2022-08-18T16:29:01.717Z,26.10
2022-08-18T16:31:30.528Z,26.13
2022-08-18T16:33:59.015Z,26.07
2022-08-18T16:36:27.386Z,26.12
2022-08-18T16:38:58.332Z,26.16
2022-08-18T16:41:27.623Z,26.21
2022-08-18T16:43:56.387Z,26.22
2022-08-18T16:46:28.306Z,26.16
2022-08-18T16:48:57.853Z,26.10
2022-08-18T16:51:28.547Z,26.06
2022-08-18T16:53:56.647Z,25.99
2022-08-18T16:56:27.167Z,26.03
2022-08-18T16:59:13.139Z,26.06
2022-08-18T17:02:00.822Z,26.06
2022-08-18T17:04:33.582Z,25.93
2022-08-18T17:07:02.623Z,25.77
2022-08-18T17:09:30.838Z,25.76
2022-08-18T17:11:58.713Z,25.71
2022-08-18T17:14:29.269Z,25.74
2022-08-18T17:17:00.273Z,25.72
2022-08-18T17:19:31.186Z,25.69
2022-08-18T17:21:59.081Z,25.55
2022-08-18T17:24:31.930Z,25.54
2022-08-18T17:27:26.016Z,25.59
2022-08-18T17:30:03.817Z,25.66
2022-08-18T17:32:41.499Z,25.67
2022-08-18T17:35:16.788Z,25.63
2022-08-18T17:37:54.557Z,25.64
2022-08-18T17:40:28.619Z,25.58
2022-08-18T17:42:58.547Z,25.52
2022-08-18T17:45:29.501Z,25.43
2022-08-18T17:48:05.464Z,25.38
2022-08-18T17:50:54.726Z,25.32
2022-08-18T17:53:23.312Z,25.25
2022-08-18T17:55:59.993Z,25.19
2022-08-18T17:58:37.986Z,25.14
2022-08-18T18:01:06.177Z,25.09
2022-08-18T18:03:35.353Z,25.04
2022-08-18T18:06:10.746Z,24.95
2022-08-18T18:08:57.896Z,24.91
2022-08-18T18:11:32.299Z,24.87
2022-08-18T18:14:01.591Z,24.85
2022-08-18T18:16:35.079Z,24.82
2022-08-18T18:19:07.689Z,24.79
2022-08-18T18:21:53.605Z,24.76
2022-08-18T18:24:31.621Z,24.73
2022-08-18T18:26:59.471Z,24.69
2022-08-18T18:29:34.485Z,24.66
2022-08-18T18:32:07.469Z,24.61
2022-08-18T18:34:39.744Z,24.49
2022-08-18T18:37:27.319Z,24.37
2022-08-18T18:39:58.060Z,24.31
2022-08-18T18:42:28.360Z,24.28
2022-08-18T18:44:58.153Z,24.26
2022-08-18T18:47:42.440Z,24.17
2022-08-18T18:50:18.453Z,24.06
2022-08-18T18:52:56.764Z,23.99
2022-08-18T18:55:26.896Z,24.02
2022-08-18T18:58:09.902Z,23.92
2022-08-18T19:00:53.642Z,23.76
2022-08-18T19:03:29.373Z,23.55
2022-08-18T19:06:13.328Z,23.39
2022-08-18T19:08:51.908Z,23.31
2022-08-18T19:11:29.030Z,23.36
2022-08-18T19:14:03.024Z,23.33
2022-08-18T19:16:40.957Z,23.26
2022-08-18T19:19:38.394Z,23.21
2022-08-18T19:22:11.443Z,23.11
2022-08-18T19:24:48.571Z,22.98
2022-08-18T19:27:25.223Z,22.98
2022-08-18T19:29:57.972Z,22.89
2022-08-18T19:32:33.650Z,22.81
2022-08-18T19:35:04.436Z,22.69
2022-08-18T19:37:53.859Z,22.69
2022-08-18T19:40:27.510Z,22.49
2022-08-18T19:43:01.820Z,22.48
2022-08-18T19:45:34.710Z,22.43
2022-08-18T19:48:08.409Z,22.37
2022-08-18T19:50:43.100Z,22.32
2022-08-18T19:53:44.292Z,22.26
2022-08-18T19:56:26.088Z,22.27
2022-08-18T19:59:18.042Z,22.30
2022-08-18T20:01:58.725Z,22.18
2022-08-18T20:04:39.186Z,22.19
2022-08-18T20:07:52.065Z,22.20
2022-08-18T20:10:45.045Z,22.14
2022-08-18T20:13:28.174Z,22.15
2022-08-18T20:16:13.322Z,22.06
2022-08-18T20:18:43.852Z,22.17
2022-08-18T20:21:47.486Z,22.19
2022-08-18T20:24:40.362Z,22.07
2022-08-18T20:27:32.874Z,22.13
2022-08-18T20:30:40.627Z,22.04
2022-08-18T20:33:19.497Z,22.02
2022-08-18T20:35:53.082Z,21.98
2022-08-18T20:38:33.897Z,22.05
2022-08-18T20:45:01.319Z,21.95
2022-08-18T20:47:55.949Z,21.98
2022-08-18T20:51:10.679Z,21.86
2022-08-18T20:54:01.510Z,21.93
2022-08-18T20:56:43.948Z,21.88
2022-08-18T20:59:20.736Z,21.82
2022-08-18T21:01:58.989Z,21.75
2022-08-18T21:04:42.918Z,21.79
2022-08-18T21:07:36.808Z,21.79
2022-08-18T21:10:18.533Z,21.79
2022-08-18T21:13:03.963Z,21.88
2022-08-18T21:15:38.084Z,21.88
2022-08-18T21:18:19.053Z,21.89
2022-08-18T21:20:51.371Z,21.81
2022-08-18T21:23:26.906Z,21.80
2022-08-18T21:26:02.956Z,21.79
2022-08-18T21:28:37.797Z,21.78
2022-08-18T21:31:42.574Z,21.78
2022-08-18T21:34:10.175Z,21.79
2022-08-18T21:36:49.157Z,21.75
2022-08-18T21:39:19.741Z,21.65
2022-08-18T21:42:01.534Z,21.71
2022-08-18T21:44:42.490Z,21.64
2022-08-18T21:47:20.119Z,21.63
2022-08-18T21:58:48.225Z,21.56
2022-08-18T22:01:32.024Z,21.61
2022-08-18T22:04:10.418Z,21.60
2022-08-18T22:06:45.448Z,21.55
2022-08-18T22:12:51.923Z,21.53
2022-08-18T22:15:36.900Z,21.51
2022-08-18T22:18:07.643Z,21.46
2022-08-18T22:20:47.845Z,21.37
2022-08-18T22:23:54.039Z,21.35
2022-08-18T22:26:30.146Z,21.30
2022-08-18T22:29:01.971Z,21.32
2022-08-18T22:31:35.265Z,21.26
2022-08-18T22:34:07.297Z,21.21
2022-08-18T22:36:43.382Z,21.15
2022-08-18T22:39:23.754Z,21.17
2022-08-18T22:41:53.047Z,21.15
2022-08-18T22:44:23.988Z,20.97
2022-08-18T22:47:09.165Z,21.04
2022-08-18T22:49:38.996Z,20.98
2022-08-18T22:52:29.905Z,21.00
2022-08-18T22:54:59.143Z,21.04
2022-08-18T22:57:28.979Z,20.95
2022-08-18T22:59:58.223Z,20.89
2022-08-18T23:02:29.733Z,20.91
2022-08-18T23:05:04.434Z,20.89
2022-08-18T23:07:34.304Z,20.90
2022-08-18T23:10:13.971Z,20.86
2022-08-18T23:12:42.948Z,20.82
2022-08-18T23:15:15.341Z,20.85
2022-08-18T23:17:45.292Z,20.82
2022-08-18T23:20:17.433Z,20.80
2022-08-18T23:22:47.551Z,20.74
2022-08-18T23:25:15.938Z,20.76
2022-08-18T23:27:44.015Z,20.73
2022-08-18T23:30:12.567Z,20.65
2022-08-18T23:32:40.598Z,20.66
2022-08-18T23:35:10.533Z,20.73
2022-08-18T23:37:39.668Z,20.62
2022-08-18T23:40:11.312Z,20.66
2022-08-18T23:42:40.054Z,20.62
2022-08-18T23:45:08.859Z,20.60
2022-08-18T23:47:37.057Z,20.53
2022-08-18T23:50:06.344Z,20.43
2022-08-18T23:52:35.601Z,20.49
2022-08-18T23:55:05.741Z,20.49
2022-08-18T23:57:33.655Z,20.52
